createdAt,value
2017-11-26T00:00:55.225Z,5.64
2017-11-26T00:03:22.748Z,5.77
2017-11-26T00:05:50.596Z,5.77
2017-11-26T00:08:18.172Z,5.54
2017-11-26T00:10:45.712Z,5.30
2017-11-26T00:13:13.312Z,5.56
2017-11-26T00:15:40.824Z,4.96
2017-11-26T00:18:08.392Z,5.14
2017-11-26T00:20:36.054Z,5.02
2017-11-26T00:23:03.584Z,4.95
2017-11-26T00:25:31.095Z,4.56
2017-11-26T00:27:58.885Z,4.94
2017-11-26T00:30:26.454Z,4.85
2017-11-26T00:32:53.982Z,4.70
2017-11-26T00:35:21.714Z,5.00
2017-11-26T00:37:49.273Z,5.07
2017-11-26T00:40:16.797Z,5.12
2017-11-26T00:42:44.345Z,4.97
2017-11-26T00:45:11.856Z,4.62
2017-11-26T00:47:39.365Z,4.75
2017-11-26T00:50:06.915Z,4.69
2017-11-26T00:52:34.436Z,4.81
2017-11-26T00:55:01.960Z,4.48
2017-11-26T00:57:29.576Z,4.83
2017-11-26T00:59:57.102Z,4.86
2017-11-26T01:02:24.736Z,4.71
2017-11-26T01:04:52.281Z,4.86
2017-11-26T01:07:19.799Z,4.89
2017-11-26T01:09:47.312Z,4.56
2017-11-26T01:12:14.864Z,4.75
2017-11-26T01:14:42.380Z,4.65
2017-11-26T01:17:09.887Z,4.67
2017-11-26T01:19:37.778Z,4.88
2017-11-26T01:22:05.339Z,4.70
2017-11-26T01:24:32.848Z,4.98
2017-11-26T01:27:00.782Z,5.01
2017-11-26T01:29:28.321Z,4.64
2017-11-26T01:31:55.867Z,4.99
2017-11-26T01:34:23.525Z,4.83
2017-11-26T01:36:51.054Z,4.91
2017-11-26T01:39:18.582Z,4.61
2017-11-26T01:41:46.326Z,4.70
2017-11-26T01:44:13.884Z,4.65
2017-11-26T01:46:41.404Z,4.66
2017-11-26T01:49:09.040Z,4.81
2017-11-26T01:51:36.572Z,4.57
2017-11-26T01:54:04.119Z,4.85
2017-11-26T01:56:31.894Z,4.93
2017-11-26T01:58:59.404Z,4.94
2017-11-26T02:01:26.968Z,5.00
2017-11-26T02:03:59.127Z,5.02
2017-11-26T02:06:26.655Z,5.07
2017-11-26T02:08:54.182Z,4.77
2017-11-26T02:11:21.843Z,4.78
2017-11-26T02:13:49.356Z,4.59
2017-11-26T02:16:16.867Z,4.36
2017-11-26T02:18:44.739Z,4.62
2017-11-26T02:21:12.285Z,4.40
2017-11-26T02:23:39.844Z,4.31
2017-11-26T02:26:07.709Z,4.30
2017-11-26T02:28:35.278Z,4.39
2017-11-26T02:31:02.829Z,4.18
2017-11-26T02:33:42.575Z,4.04
2017-11-26T02:36:17.012Z,4.02
2017-11-26T02:38:44.868Z,4.02
2017-11-26T02:41:12.378Z,4.01
2017-11-26T02:43:39.977Z,3.93
2017-11-26T02:46:07.844Z,4.09
2017-11-26T02:48:35.348Z,4.19
2017-11-26T02:51:02.880Z,4.10
2017-11-26T02:53:30.422Z,3.97
2017-11-26T02:55:57.978Z,3.73
2017-11-26T02:58:25.478Z,4.01
2017-11-26T03:00:53.608Z,3.63
2017-11-26T03:03:21.119Z,3.65
2017-11-26T03:05:48.639Z,3.69
2017-11-26T03:08:16.196Z,3.55
2017-11-26T03:10:43.743Z,3.78
2017-11-26T03:13:11.250Z,3.91
2017-11-26T03:15:38.788Z,3.87
2017-11-26T03:18:06.317Z,3.74
2017-11-26T03:20:33.878Z,3.72
2017-11-26T03:23:01.614Z,3.72
2017-11-26T03:25:29.127Z,3.93
2017-11-26T03:27:56.638Z,4.07
2017-11-26T03:30:24.192Z,3.55
2017-11-26T03:32:51.703Z,3.64
2017-11-26T03:35:19.333Z,3.91
2017-11-26T03:37:47.071Z,3.86
2017-11-26T03:40:14.583Z,3.87
2017-11-26T03:42:42.092Z,3.89
2017-11-26T03:45:09.673Z,3.86
2017-11-26T03:47:37.183Z,3.69
2017-11-26T03:50:04.695Z,3.61
2017-11-26T03:52:32.452Z,3.97
2017-11-26T03:54:59.959Z,4.09
2017-11-26T03:57:27.484Z,3.96
2017-11-26T03:59:55.025Z,4.14
2017-11-26T04:02:22.535Z,4.14
2017-11-26T04:04:50.051Z,4.12
2017-11-26T04:07:17.826Z,3.85
2017-11-26T04:09:45.334Z,4.01
2017-11-26T04:12:12.848Z,3.80
2017-11-26T04:14:40.564Z,3.80
2017-11-26T04:17:08.089Z,3.88
2017-11-26T04:19:35.628Z,4.08
2017-11-26T04:22:03.255Z,3.86
2017-11-26T04:24:30.762Z,3.78
2017-11-26T04:26:58.279Z,3.90
2017-11-26T04:29:25.947Z,3.93
2017-11-26T04:31:53.499Z,3.89
2017-11-26T04:34:21.003Z,4.11
2017-11-26T04:36:48.567Z,4.22
2017-11-26T04:39:16.080Z,4.30
2017-11-26T04:41:43.620Z,4.18
2017-11-26T04:44:11.295Z,4.49
2017-11-26T04:46:38.854Z,4.25
2017-11-26T04:49:06.360Z,4.09
2017-11-26T04:51:33.915Z,4.04
2017-11-26T04:54:01.428Z,4.00
2017-11-26T04:56:28.986Z,4.14
2017-11-26T04:58:56.559Z,3.94
2017-11-26T05:01:24.066Z,3.94
2017-11-26T05:03:51.581Z,3.78
2017-11-26T05:06:19.411Z,3.87
2017-11-26T05:08:46.920Z,3.79
2017-11-26T05:11:14.445Z,3.66
2017-11-26T05:13:42.022Z,4.01
2017-11-26T05:16:09.564Z,3.59
2017-11-26T05:18:37.124Z,3.72
2017-11-26T05:21:04.677Z,3.76
2017-11-26T05:23:32.188Z,3.86
2017-11-26T05:25:59.700Z,3.72
2017-11-26T05:28:27.251Z,3.79
2017-11-26T05:30:54.766Z,3.52
2017-11-26T05:33:22.274Z,3.50
2017-11-26T05:35:49.832Z,3.65
2017-11-26T05:38:17.343Z,3.49
2017-11-26T05:40:44.854Z,3.57
2017-11-26T05:43:12.611Z,3.53
2017-11-26T05:45:40.137Z,3.36
2017-11-26T05:48:07.653Z,3.25
2017-11-26T05:50:35.755Z,3.60
2017-11-26T05:53:03.304Z,3.76
2017-11-26T05:55:30.860Z,3.64
2017-11-26T05:57:58.587Z,3.48
2017-11-26T06:00:26.095Z,3.51
2017-11-26T06:02:53.608Z,3.29
2017-11-26T06:05:21.767Z,3.49
2017-11-26T06:07:49.291Z,3.44
2017-11-26T06:10:16.800Z,3.93
2017-11-26T06:12:44.756Z,3.89
2017-11-26T06:15:12.313Z,3.52
2017-11-26T06:17:39.819Z,4.03
2017-11-26T06:20:07.532Z,3.97
2017-11-26T06:22:35.093Z,3.76
2017-11-26T06:25:02.608Z,3.97
2017-11-26T06:27:30.607Z,4.00
2017-11-26T06:29:58.116Z,3.98
2017-11-26T06:32:25.639Z,3.69
2017-11-26T06:34:53.238Z,3.54
2017-11-26T06:37:20.748Z,3.72
2017-11-26T06:39:48.416Z,3.88
2017-11-26T06:42:15.961Z,4.30
2017-11-26T06:44:43.489Z,4.22
2017-11-26T06:47:11.177Z,4.00
2017-11-26T06:49:38.872Z,4.15
2017-11-26T06:52:06.416Z,4.18
2017-11-26T06:54:33.920Z,4.02
2017-11-26T06:57:01.738Z,4.02
2017-11-26T06:59:29.323Z,4.11
2017-11-26T07:01:56.847Z,4.27
2017-11-26T07:04:24.517Z,4.32
2017-11-26T07:06:52.079Z,4.08
2017-11-26T07:09:19.636Z,4.07
2017-11-26T07:11:48.559Z,4.11
2017-11-26T07:14:16.495Z,4.20
2017-11-26T07:16:44.057Z,4.02
2017-11-26T07:19:11.824Z,4.37
2017-11-26T07:21:39.378Z,4.39
2017-11-26T07:24:06.892Z,4.17
2017-11-26T07:26:34.432Z,4.78
2017-11-26T07:29:01.945Z,4.83
2017-11-26T07:31:29.463Z,5.01
2017-11-26T07:33:57.172Z,5.06
2017-11-26T07:36:24.739Z,4.43
2017-11-26T07:38:52.247Z,4.86
2017-11-26T07:41:20.032Z,4.47
2017-11-26T07:43:47.548Z,4.68
2017-11-26T07:46:15.245Z,4.31
2017-11-26T07:48:42.835Z,4.59
2017-11-26T07:51:10.395Z,4.49
2017-11-26T07:53:37.953Z,4.74
2017-11-26T07:56:05.513Z,5.08
2017-11-26T07:58:33.037Z,5.16
2017-11-26T08:01:00.675Z,5.24
2017-11-26T08:03:28.483Z,5.37
2017-11-26T08:05:55.996Z,5.05
2017-11-26T08:08:23.515Z,5.02
2017-11-26T08:10:51.231Z,5.14
2017-11-26T08:13:18.753Z,5.14
2017-11-26T08:15:46.300Z,5.27
2017-11-26T08:18:13.855Z,5.47
2017-11-26T08:20:41.513Z,5.49
2017-11-26T08:23:09.020Z,5.50
2017-11-26T08:25:36.911Z,5.53
2017-11-26T08:28:04.420Z,5.69
2017-11-26T08:30:31.975Z,5.59
2017-11-26T08:32:59.540Z,5.85
2017-11-26T08:35:27.063Z,6.01
2017-11-26T08:37:54.603Z,5.96
2017-11-26T08:40:23.419Z,5.75
2017-11-26T08:42:50.986Z,6.28
2017-11-26T08:45:18.511Z,6.34
2017-11-26T08:47:46.410Z,6.32
2017-11-26T08:50:13.955Z,6.17
2017-11-26T08:52:41.471Z,6.45
2017-11-26T08:55:09.034Z,6.71
2017-11-26T08:57:36.566Z,6.71
2017-11-26T09:00:04.096Z,6.94
2017-11-26T09:02:31.658Z,6.17
2017-11-26T09:04:59.172Z,6.44
2017-11-26T09:07:30.631Z,6.69
2017-11-26T09:09:58.229Z,7.32
2017-11-26T09:12:25.767Z,7.57
2017-11-26T09:14:53.295Z,7.91
2017-11-26T09:17:20.846Z,6.96
2017-11-26T09:19:48.663Z,6.41
2017-11-26T09:22:16.405Z,6.33
2017-11-26T09:24:43.994Z,6.14
2017-11-26T09:27:12.570Z,6.53
2017-11-26T09:29:40.129Z,6.45
2017-11-26T09:32:08.077Z,6.31
2017-11-26T09:34:35.605Z,6.01
2017-11-26T09:37:03.421Z,5.75
2017-11-26T09:39:31.138Z,5.91
2017-11-26T09:41:58.948Z,5.78
2017-11-26T09:44:26.712Z,5.94
2017-11-26T09:46:55.516Z,6.06
2017-11-26T09:49:23.197Z,6.40
2017-11-26T09:51:51.288Z,6.51
2017-11-26T09:54:19.405Z,6.79
2017-11-26T09:56:46.968Z,6.86
2017-11-26T09:59:14.534Z,7.10
2017-11-26T10:01:43.414Z,7.40
2017-11-26T10:04:11.499Z,7.18
2017-11-26T10:06:39.239Z,7.18
2017-11-26T10:09:06.888Z,7.13
2017-11-26T10:11:35.186Z,7.24
2017-11-26T10:14:02.952Z,7.60
2017-11-26T10:16:30.719Z,8.48
2017-11-26T10:18:58.237Z,8.54
2017-11-26T10:21:25.949Z,8.39
2017-11-26T10:23:53.954Z,7.24
2017-11-26T10:26:21.669Z,7.61
2017-11-26T10:28:49.440Z,7.66
2017-11-26T10:31:17.233Z,7.75
2017-11-26T10:33:45.056Z,7.67
2017-11-26T10:36:12.927Z,7.36
2017-11-26T10:38:40.572Z,7.57
2017-11-26T10:41:08.455Z,7.42
2017-11-26T10:43:36.219Z,7.34
2017-11-26T10:46:03.879Z,7.34
2017-11-26T10:48:31.488Z,7.28
2017-11-26T10:50:59.233Z,7.03
2017-11-26T10:53:27.012Z,7.58
2017-11-26T10:55:54.733Z,7.18
2017-11-26T10:58:22.511Z,6.98
2017-11-26T11:00:50.730Z,6.83
2017-11-26T11:03:18.397Z,6.87
2017-11-26T11:05:46.197Z,6.89
2017-11-26T11:08:13.836Z,6.73
2017-11-26T11:10:41.418Z,6.55
2017-11-26T11:13:09.017Z,7.57
2017-11-26T11:15:36.944Z,10.98
2017-11-26T11:18:04.815Z,13.24
2017-11-26T11:20:32.383Z,13.29
2017-11-26T11:23:00.146Z,14.52
2017-11-26T11:25:27.695Z,17.57
2017-11-26T11:27:55.368Z,20.62
2017-11-26T11:30:23.120Z,22.34
2017-11-26T11:32:50.774Z,21.08
2017-11-26T11:35:18.645Z,19.10
2017-11-26T11:37:46.247Z,18.66
2017-11-26T11:40:14.996Z,20.84
2017-11-26T11:42:42.791Z,19.46
2017-11-26T11:45:10.672Z,16.08
2017-11-26T11:47:38.397Z,13.09
2017-11-26T11:50:06.050Z,12.11
2017-11-26T11:52:33.984Z,11.83
2017-11-26T11:55:01.575Z,12.29
2017-11-26T11:57:29.338Z,13.07
2017-11-26T11:59:57.139Z,12.58
2017-11-26T12:02:24.686Z,10.77
2017-11-26T12:04:52.267Z,10.10
2017-11-26T12:07:19.863Z,9.96
2017-11-26T12:09:47.430Z,9.80
2017-11-26T12:12:14.965Z,9.00
2017-11-26T12:14:42.731Z,9.31
2017-11-26T12:17:10.531Z,10.33
2017-11-26T12:19:38.170Z,10.15
2017-11-26T12:22:05.825Z,9.65
2017-11-26T12:24:33.393Z,9.47
2017-11-26T12:27:01.183Z,9.02
2017-11-26T12:29:29.115Z,8.49
2017-11-26T12:31:57.009Z,8.16
2017-11-26T12:34:24.645Z,8.08
2017-11-26T12:36:52.840Z,8.21
2017-11-26T12:39:20.446Z,7.41
2017-11-26T12:41:48.166Z,7.79
2017-11-26T12:44:16.750Z,7.67
2017-11-26T12:46:44.608Z,8.04
2017-11-26T12:49:12.482Z,8.54
2017-11-26T12:51:40.359Z,8.59
2017-11-26T12:54:08.216Z,8.66
2017-11-26T12:56:35.980Z,7.80
2017-11-26T12:59:03.646Z,7.74
2017-11-26T13:01:31.231Z,7.43
2017-11-26T13:03:58.964Z,7.36
2017-11-26T13:06:26.918Z,7.69
2017-11-26T13:08:54.798Z,7.40
2017-11-26T13:11:23.073Z,7.96
2017-11-26T13:13:50.940Z,7.87
2017-11-26T13:16:18.474Z,8.51
2017-11-26T13:18:46.263Z,8.44
2017-11-26T13:21:13.958Z,8.45
2017-11-26T13:23:41.507Z,8.93
2017-11-26T13:26:09.047Z,8.84
2017-11-26T13:28:37.096Z,8.79
2017-11-26T13:31:04.687Z,9.21
2017-11-26T13:33:32.436Z,9.73
2017-11-26T13:36:00.312Z,9.77
2017-11-26T13:38:28.067Z,9.94
2017-11-26T13:40:55.889Z,9.97
2017-11-26T13:43:23.800Z,9.66
2017-11-26T13:45:51.727Z,9.15
2017-11-26T13:48:19.417Z,8.91
2017-11-26T13:50:47.203Z,8.85
2017-11-26T13:53:14.843Z,8.55
2017-11-26T13:55:42.516Z,8.60
2017-11-26T13:58:10.382Z,8.95
2017-11-26T14:00:38.056Z,9.13
2017-11-26T14:03:06.214Z,8.65
2017-11-26T14:05:34.186Z,8.71
2017-11-26T14:08:01.849Z,8.85
2017-11-26T14:10:29.496Z,8.83
2017-11-26T14:12:57.467Z,8.66
2017-11-26T14:15:25.138Z,8.92
2017-11-26T14:17:52.897Z,7.78
2017-11-26T14:20:20.978Z,7.90
2017-11-26T14:22:48.605Z,8.14
2017-11-26T14:25:16.319Z,8.32
2017-11-26T14:27:44.044Z,7.92
2017-11-26T14:30:11.926Z,8.10
2017-11-26T14:32:39.474Z,7.54
2017-11-26T14:35:07.248Z,7.37
2017-11-26T14:37:34.912Z,7.67
2017-11-26T14:40:02.471Z,7.77
2017-11-26T14:42:30.211Z,7.64
2017-11-26T14:44:58.000Z,7.53
2017-11-26T14:47:25.666Z,7.70
2017-11-26T14:49:53.733Z,7.11
2017-11-26T14:52:21.698Z,7.07
2017-11-26T14:54:49.689Z,7.08
2017-11-26T14:57:17.849Z,7.03
2017-11-26T14:59:45.770Z,6.88
2017-11-26T15:02:13.589Z,6.76
2017-11-26T15:04:41.652Z,6.83
2017-11-26T15:07:09.717Z,6.93
2017-11-26T15:09:37.688Z,6.61
2017-11-26T15:12:05.768Z,6.38
2017-11-26T15:14:33.632Z,6.73
2017-11-26T15:17:01.567Z,6.71
2017-11-26T15:19:29.838Z,6.52
2017-11-26T15:21:57.835Z,6.70
2017-11-26T15:24:25.598Z,6.81
2017-11-26T15:26:53.268Z,6.72
2017-11-26T15:29:20.819Z,6.17
2017-11-26T15:31:48.379Z,6.63
2017-11-26T15:34:17.269Z,6.00
2017-11-26T15:36:44.850Z,6.49
2017-11-26T15:39:12.392Z,6.61
2017-11-26T15:41:40.063Z,6.67
2017-11-26T15:44:07.651Z,6.30
2017-11-26T15:46:35.168Z,6.63
2017-11-26T15:49:02.869Z,6.86
2017-11-26T15:51:30.390Z,6.55
2017-11-26T15:53:57.939Z,6.36
2017-11-26T15:56:25.709Z,6.38
2017-11-26T15:58:53.271Z,6.55
2017-11-26T16:01:20.955Z,6.56
2017-11-26T16:03:48.640Z,6.48
2017-11-26T16:06:16.199Z,6.47
2017-11-26T16:08:43.715Z,6.45
2017-11-26T16:11:11.302Z,6.72
2017-11-26T16:13:39.029Z,6.73
2017-11-26T16:16:06.796Z,6.77
2017-11-26T16:18:34.413Z,6.77
2017-11-26T16:21:01.941Z,7.00
2017-11-26T16:23:29.657Z,7.02
2017-11-26T16:25:57.238Z,6.87
2017-11-26T16:28:24.769Z,6.90
2017-11-26T16:30:52.408Z,7.06
2017-11-26T16:33:20.243Z,7.04
2017-11-26T16:35:47.882Z,7.14
2017-11-26T16:38:15.633Z,6.75
2017-11-26T16:40:43.497Z,6.88
2017-11-26T16:43:11.125Z,6.76
2017-11-26T16:45:38.791Z,6.37
2017-11-26T16:48:07.030Z,6.29
2017-11-26T16:50:34.605Z,6.06
2017-11-26T16:53:02.228Z,5.73
2017-11-26T16:55:29.977Z,5.49
2017-11-26T16:57:57.553Z,5.14
2017-11-26T17:00:25.162Z,5.29
2017-11-26T17:02:52.774Z,5.00
2017-11-26T17:05:20.312Z,4.62
2017-11-26T17:07:47.949Z,4.76
2017-11-26T17:10:15.639Z,4.57
2017-11-26T17:12:43.399Z,4.45
2017-11-26T17:15:11.186Z,4.77
2017-11-26T17:17:40.065Z,5.01
2017-11-26T17:20:07.747Z,5.15
2017-11-26T17:25:02.284Z,5.25
2017-11-26T17:27:30.779Z,5.45
2017-11-26T17:29:58.338Z,5.42
2017-11-26T17:32:26.349Z,5.15
2017-11-26T17:34:54.117Z,5.07
2017-11-26T17:37:21.884Z,4.81
2017-11-26T17:39:49.641Z,5.00
2017-11-26T17:42:17.305Z,4.95
2017-11-26T17:44:45.168Z,4.97
2017-11-26T17:47:14.196Z,4.89
2017-11-26T17:49:41.924Z,5.04
2017-11-26T17:52:09.689Z,5.25
2017-11-26T17:54:37.877Z,5.21
2017-11-26T17:57:05.628Z,5.10
2017-11-26T17:59:33.421Z,5.45
2017-11-26T18:02:01.299Z,5.34
2017-11-26T18:04:29.137Z,5.16
2017-11-26T18:06:57.295Z,5.29
2017-11-26T18:09:25.161Z,5.33
2017-11-26T18:11:52.824Z,5.48
2017-11-26T18:14:20.792Z,5.66
2017-11-26T18:16:48.660Z,5.70
2017-11-26T18:19:16.789Z,5.57
2017-11-26T18:21:44.494Z,5.60
2017-11-26T18:24:12.579Z,5.77
2017-11-26T18:26:40.129Z,5.64
2017-11-26T18:29:07.885Z,5.83
2017-11-26T18:31:35.776Z,5.80
2017-11-26T18:34:03.379Z,5.62
2017-11-26T18:36:30.981Z,5.81
2017-11-26T18:38:58.942Z,5.40
2017-11-26T18:41:26.707Z,5.18
2017-11-26T18:43:54.473Z,5.29
2017-11-26T18:46:22.211Z,5.12
2017-11-26T18:48:49.736Z,5.18
2017-11-26T18:51:17.261Z,5.18
2017-11-26T18:53:45.280Z,5.26
2017-11-26T18:56:13.040Z,5.09
2017-11-26T18:58:40.851Z,5.19
2017-11-26T19:01:08.672Z,5.08
2017-11-26T19:03:36.384Z,4.77
2017-11-26T19:06:04.114Z,4.87
2017-11-26T19:08:32.097Z,5.09
2017-11-26T19:11:00.077Z,4.98
2017-11-26T19:13:27.843Z,5.10
2017-11-26T19:15:55.743Z,5.42
2017-11-26T19:18:23.369Z,5.03
2017-11-26T19:20:51.247Z,5.53
2017-11-26T19:23:19.825Z,5.57
2017-11-26T19:25:47.686Z,5.75
2017-11-26T19:28:15.455Z,5.52
2017-11-26T19:30:43.154Z,5.80
2017-11-26T19:33:10.976Z,5.63
2017-11-26T19:35:38.756Z,5.54
2017-11-26T19:38:06.478Z,5.53
2017-11-26T19:40:34.266Z,5.61
2017-11-26T19:43:02.960Z,5.48
2017-11-26T19:45:30.716Z,5.37
2017-11-26T19:47:58.504Z,5.15
2017-11-26T19:50:26.449Z,5.23
2017-11-26T19:52:54.418Z,4.79
2017-11-26T19:55:22.082Z,4.97
2017-11-26T19:57:49.735Z,5.28
2017-11-26T20:00:17.930Z,4.96
2017-11-26T20:02:46.060Z,4.61
2017-11-26T20:05:13.755Z,4.47
2017-11-26T20:07:42.496Z,4.59
2017-11-26T20:10:10.363Z,4.43
2017-11-26T20:12:38.784Z,4.58
2017-11-26T20:15:07.272Z,4.47
2017-11-26T20:17:36.257Z,4.36
2017-11-26T20:20:04.224Z,4.60
2017-11-26T20:22:33.832Z,4.58
2017-11-26T20:25:01.542Z,4.57
2017-11-26T20:27:29.564Z,4.33
2017-11-26T20:29:57.493Z,4.44
2017-11-26T20:32:25.206Z,4.15
2017-11-26T20:34:52.972Z,4.31
2017-11-26T20:37:21.131Z,4.24
2017-11-26T20:39:48.908Z,4.37
2017-11-26T20:42:16.762Z,4.17
2017-11-26T20:44:44.637Z,4.30
2017-11-26T20:47:13.329Z,4.14
2017-11-26T20:49:44.049Z,4.02
2017-11-26T20:52:12.028Z,4.05
2017-11-26T20:54:40.079Z,4.42
2017-11-26T20:57:07.854Z,4.11
2017-11-26T20:59:36.126Z,4.11
2017-11-26T21:02:04.104Z,4.37
2017-11-26T21:04:31.860Z,4.09
2017-11-26T21:06:59.730Z,3.81
2017-11-26T21:09:27.555Z,4.01
2017-11-26T21:11:55.160Z,4.02
2017-11-26T21:14:22.740Z,4.32
2017-11-26T21:16:50.281Z,4.13
2017-11-26T21:19:17.933Z,4.02
2017-11-26T21:21:45.692Z,4.16
2017-11-26T21:24:13.436Z,4.32
2017-11-26T21:26:41.120Z,4.65
2017-11-26T21:29:08.986Z,4.60
2017-11-26T21:31:36.579Z,4.41
2017-11-26T21:34:04.123Z,4.71
2017-11-26T21:36:32.076Z,4.43
2017-11-26T21:38:59.642Z,4.41
2017-11-26T21:41:27.192Z,4.61
2017-11-26T21:43:55.366Z,4.67
2017-11-26T21:46:22.932Z,4.97
2017-11-26T21:48:50.585Z,4.89
2017-11-26T21:51:18.410Z,4.98
2017-11-26T21:53:46.216Z,4.88
2017-11-26T21:56:13.776Z,4.88
2017-11-26T21:58:41.340Z,4.80
2017-11-26T22:01:08.996Z,4.66
2017-11-26T22:03:36.658Z,4.64
2017-11-26T22:06:04.230Z,4.67
2017-11-26T22:08:31.792Z,4.62
2017-11-26T22:10:59.395Z,4.94
2017-11-26T22:13:27.202Z,4.99
2017-11-26T22:15:54.717Z,4.88
2017-11-26T22:18:22.245Z,4.94
2017-11-26T22:20:50.083Z,4.74
2017-11-26T22:23:17.636Z,4.49
2017-11-26T22:25:45.149Z,4.64
2017-11-26T22:28:12.866Z,4.72
2017-11-26T22:30:40.534Z,4.76
2017-11-26T22:33:08.162Z,4.74
2017-11-26T22:35:35.905Z,4.92
2017-11-26T22:38:03.628Z,5.01
2017-11-26T22:40:34.040Z,5.26
2017-11-26T22:43:01.904Z,5.23
2017-11-26T22:45:29.459Z,5.12
2017-11-26T22:47:57.023Z,5.33
2017-11-26T22:50:24.799Z,5.27
2017-11-26T22:52:52.448Z,5.03
2017-11-26T22:55:20.293Z,4.71
2017-11-26T22:57:48.578Z,4.80
2017-11-26T23:00:16.221Z,4.90
2017-11-26T23:02:43.918Z,4.88
2017-11-26T23:05:11.656Z,4.76
2017-11-26T23:07:39.647Z,4.87
2017-11-26T23:10:07.223Z,5.02
2017-11-26T23:12:35.320Z,5.05
2017-11-26T23:15:03.552Z,4.99
2017-11-26T23:17:31.214Z,5.10
2017-11-26T23:19:59.286Z,4.91
2017-11-26T23:22:26.816Z,5.05
2017-11-26T23:24:54.361Z,4.88
2017-11-26T23:27:22.001Z,4.94
2017-11-26T23:29:50.160Z,4.93
2017-11-26T23:32:18.834Z,5.05
2017-11-26T23:34:46.690Z,5.12
2017-11-26T23:37:14.249Z,4.86
2017-11-26T23:39:42.338Z,5.12
2017-11-26T23:42:13.751Z,5.16
2017-11-26T23:44:42.207Z,5.16
2017-11-26T23:47:11.960Z,4.96
2017-11-26T23:49:43.514Z,5.06
2017-11-26T23:52:11.270Z,5.09
2017-11-26T23:54:39.217Z,4.94
2017-11-26T23:57:07.734Z,4.71
2017-11-26T23:59:35.417Z,4.80
